Time;durP1;ratioP1;P1;durP2;ratioP2;P2;SDS_P1;SDS_P2;PMS_P1;PMS_P2;Temp;Humidity;BMP_temperature;BMP_pressure;BME280_temperature;BME280_humidity;BME280_pressure;Samples;Min_cycle;Max_cycle;Signal;HPM_P1;HPM_P2
2022/11/10 00:00:54;;;;;;;9.52;2.60;;;9.90;99.90;;;;;;5005027;28;20041;-78
2022/11/10 00:03:19;;;;;;;5.55;1.77;;;9.90;99.90;;;;;;5005514;28;20105;-81
2022/11/10 00:05:45;;;;;;;5.88;2.08;;;9.80;99.90;;;;;;5005059;28;20092;-78
2022/11/10 00:08:11;;;;;;;6.93;2.13;;;9.90;99.90;;;;;;5004902;28;20132;-78
2022/11/10 00:10:57;;;;;;;3.33;1.05;;;9.80;99.90;;;;;;5004184;28;20053;-79
2022/11/10 00:13:25;;;;;;;7.78;2.13;;;9.90;99.90;;;;;;5006200;28;20070;-78
2022/11/10 00:18:34;;;;;;;7.63;1.95;;;9.80;99.90;;;;;;5006129;28;20048;-77
2022/11/10 00:21:05;;;;;;;8.27;2.33;;;9.80;99.90;;;;;;5004473;28;20046;-80
2022/11/10 00:23:31;;;;;;;5.63;1.52;;;9.80;99.90;;;;;;5005091;28;20084;-78
2022/11/10 00:25:57;;;;;;;4.78;1.35;;;9.80;99.90;;;;;;5005482;28;20073;-76
2022/11/10 00:28:23;;;;;;;3.17;1.83;;;9.80;99.90;;;;;;5005539;28;20327;-79
2022/11/10 00:30:49;;;;;;;2.30;1.30;;;9.80;99.90;;;;;;5005447;28;20046;-77
2022/11/10 00:33:14;;;;;;;3.67;1.38;;;9.80;99.90;;;;;;5004693;28;20089;-77
2022/11/10 00:35:40;;;;;;;2.47;1.77;;;9.80;99.90;;;;;;5006083;28;20069;-78
2022/11/10 00:38:05;;;;;;;6.22;2.00;;;9.80;99.90;;;;;;5003897;28;20180;-77
2022/11/10 00:40:31;;;;;;;2.90;1.73;;;9.80;99.90;;;;;;4987026;28;20539;-77
2022/11/10 00:42:56;;;;;;;7.85;1.77;;;9.80;99.90;;;;;;5005502;28;20476;-80
2022/11/10 00:45:22;;;;;;;3.45;2.08;;;9.80;99.90;;;;;;4987996;28;20046;-77
2022/11/10 00:47:48;;;;;;;2.28;1.30;;;9.80;99.90;;;;;;5005788;28;20224;-76
2022/11/10 00:50:13;;;;;;;6.55;2.78;;;9.70;99.90;;;;;;5004852;28;20258;-76
2022/11/10 00:52:39;;;;;;;5.05;2.22;;;9.70;99.90;;;;;;5005616;28;20037;-77
2022/11/10 00:55:05;;;;;;;3.08;1.90;;;9.70;99.90;;;;;;5005568;28;20092;-77
2022/11/10 00:57:30;;;;;;;4.38;2.00;;;9.70;99.90;;;;;;5004558;28;20166;-78
2022/11/10 00:59:56;;;;;;;2.50;1.60;;;9.80;99.90;;;;;;5005356;28;20496;-76
2022/11/10 01:02:21;;;;;;;3.45;1.95;;;9.70;99.90;;;;;;4987589;28;20046;-77
2022/11/10 01:04:47;;;;;;;8.38;2.67;;;9.70;99.90;;;;;;5004769;28;20053;-81
2022/11/10 01:07:12;;;;;;;14.27;1.35;;;9.80;99.90;;;;;;5005322;28;20049;-78
2022/11/10 01:09:38;;;;;;;5.03;2.05;;;9.80;99.90;;;;;;5005560;28;20497;-77
2022/11/10 01:12:03;;;;;;;2.30;1.70;;;9.80;99.90;;;;;;5004456;28;20388;-77
2022/11/10 01:14:29;;;;;;;3.75;2.05;;;9.80;99.90;;;;;;5020075;28;20511;-79
2022/11/10 01:16:55;;;;;;;7.47;3.25;;;9.80;99.90;;;;;;5004290;28;20048;-79
2022/11/10 01:19:20;;;;;;;5.47;2.95;;;9.70;99.90;;;;;;5003651;28;20046;-77
2022/11/10 01:21:48;;;;;;;4.53;2.25;;;9.70;99.90;;;;;;5004009;28;20064;-77
2022/11/10 01:24:18;;;;;;;4.63;1.77;;;9.70;99.90;;;;;;5004753;28;20246;-78
2022/11/10 01:26:43;;;;;;;14.45;2.50;;;9.70;99.90;;;;;;4988408;28;20035;-77
2022/11/10 01:29:09;;;;;;;2.20;1.73;;;9.70;99.90;;;;;;4984668;28;20084;-77
2022/11/10 01:31:35;;;;;;;2.58;1.67;;;9.60;99.90;;;;;;4985254;28;20420;-78
2022/11/10 01:34:00;;;;;;;5.50;2.63;;;9.60;99.90;;;;;;4985391;28;20042;-80
2022/11/10 01:36:26;;;;;;;4.00;1.85;;;9.60;99.90;;;;;;4990294;28;20045;-77
2022/11/10 01:38:51;;;;;;;3.05;1.83;;;9.70;99.90;;;;;;5004793;28;20491;-77
2022/11/10 01:41:17;;;;;;;5.57;1.83;;;9.60;99.90;;;;;;5001956;28;20049;-79
2022/11/10 01:43:43;;;;;;;7.95;1.27;;;9.70;99.90;;;;;;5003624;28;20086;-78
2022/11/10 01:46:11;;;;;;;4.90;2.17;;;9.60;99.90;;;;;;5003323;28;20092;-76
2022/11/10 01:48:52;;;;;;;5.55;2.13;;;9.70;99.90;;;;;;5004348;28;20124;-77
2022/11/10 01:51:24;;;;;;;3.27;1.40;;;9.60;99.90;;;;;;5004504;28;20137;-77
2022/11/10 01:53:55;;;;;;;7.90;1.83;;;9.60;99.90;;;;;;5003333;28;20515;-77
2022/11/10 01:56:22;;;;;;;6.32;2.22;;;9.60;99.90;;;;;;5003622;28;20095;-78
2022/11/10 01:58:52;;;;;;;5.63;1.75;;;9.60;99.90;;;;;;5004606;28;20049;-77
2022/11/10 02:01:18;;;;;;;4.32;1.10;;;9.60;99.90;;;;;;5003531;28;20116;-78
2022/11/10 02:03:57;;;;;;;6.50;2.80;;;9.60;99.90;;;;;;5003220;28;20073;-77
2022/11/10 02:06:26;;;;;;;4.72;1.55;;;9.60;99.90;;;;;;5004260;28;20866;-77
2022/11/10 02:08:53;;;;;;;1.58;1.48;;;9.60;99.90;;;;;;5004121;28;20100;-77
2022/11/10 02:11:20;;;;;;;3.05;1.55;;;9.60;99.90;;;;;;5073391;22;20543;-74
2022/11/10 02:13:46;;;;;;;11.63;2.95;;;9.60;99.90;;;;;;5004947;28;20377;-75
2022/11/10 02:16:11;;;;;;;14.80;3.20;;;9.50;99.90;;;;;;5005192;28;20111;-75
2022/11/10 02:18:37;;;;;;;3.65;1.45;;;9.50;99.90;;;;;;5005291;28;20050;-73
2022/11/10 02:21:05;;;;;;;3.97;2.33;;;9.50;99.90;;;;;;5004755;28;20084;-75
2022/11/10 02:23:33;;;;;;;1.70;1.30;;;9.50;99.90;;;;;;5004923;28;20043;-74
2022/11/10 02:26:00;;;;;;;7.47;1.98;;;9.50;99.90;;;;;;5003460;28;20198;-75
2022/11/10 02:28:26;;;;;;;3.40;1.70;;;9.50;99.90;;;;;;5005720;28;20038;-77
2022/11/10 02:30:52;;;;;;;6.25;2.25;;;9.50;99.90;;;;;;5004577;28;20120;-75
2022/11/10 02:33:18;;;;;;;4.60;1.98;;;9.50;99.90;;;;;;5004460;28;20080;-76
2022/11/10 02:35:45;;;;;;;5.88;1.52;;;9.50;99.90;;;;;;5004878;28;20465;-73
2022/11/10 02:38:11;;;;;;;4.78;2.28;;;9.50;99.90;;;;;;5003330;28;20081;-73
2022/11/10 02:40:37;;;;;;;4.45;2.65;;;9.50;99.90;;;;;;5002774;28;20101;-74
2022/11/10 02:43:05;;;;;;;4.88;2.03;;;9.50;99.90;;;;;;5005198;28;20077;-75
2022/11/10 02:45:30;;;;;;;4.78;1.60;;;9.50;99.90;;;;;;5005287;28;20054;-75
2022/11/10 02:47:56;;;;;;;3.05;1.83;;;9.50;99.90;;;;;;4988107;28;20567;-74
2022/11/10 02:50:21;;;;;;;5.25;2.40;;;9.60;99.90;;;;;;5004777;28;20077;-75
2022/11/10 02:52:47;;;;;;;2.88;2.15;;;9.60;99.90;;;;;;5006306;28;20121;-73
2022/11/10 02:55:13;;;;;;;4.53;2.10;;;9.60;99.90;;;;;;5007060;28;20077;-73
2022/11/10 02:57:38;;;;;;;4.03;2.00;;;9.60;99.90;;;;;;5006994;28;20046;-76
2022/11/10 03:00:05;;;;;;;4.57;2.28;;;9.60;99.90;;;;;;5008105;28;20826;-74
2022/11/10 03:02:31;;;;;;;5.22;2.35;;;9.60;99.90;;;;;;5008062;28;20042;-74
2022/11/10 03:04:56;;;;;;;3.17;1.95;;;9.50;99.90;;;;;;5027176;28;20432;-74
2022/11/10 03:07:22;;;;;;;4.30;1.83;;;9.60;99.90;;;;;;5027677;28;20044;-73
2022/11/10 03:09:48;;;;;;;13.40;2.97;;;9.60;99.90;;;;;;5027093;28;20122;-76
2022/11/10 03:12:13;;;;;;;5.30;2.67;;;9.60;99.90;;;;;;5027079;28;20037;-73
2022/11/10 03:14:39;;;;;;;5.60;2.58;;;9.60;99.90;;;;;;5027613;28;20095;-74
2022/11/10 03:17:04;;;;;;;5.20;2.53;;;9.60;99.90;;;;;;5027456;28;20044;-75
2022/11/10 03:19:30;;;;;;;9.68;2.17;;;9.60;99.90;;;;;;5027495;28;20484;-73
2022/11/10 03:21:56;;;;;;;5.72;2.75;;;9.60;99.90;;;;;;5026916;28;20049;-76
2022/11/10 03:24:21;;;;;;;4.43;2.58;;;9.60;99.90;;;;;;5027174;28;20037;-74
2022/11/10 03:26:47;;;;;;;4.25;2.67;;;9.60;99.90;;;;;;5010463;28;20400;-74
2022/11/10 03:29:12;;;;;;;5.97;2.55;;;9.60;99.90;;;;;;5006988;28;20050;-76
2022/11/10 03:31:38;;;;;;;6.65;2.00;;;9.60;99.90;;;;;;5007627;28;20040;-75
2022/11/10 03:34:04;;;;;;;9.07;2.67;;;9.60;99.90;;;;;;5006268;28;20076;-75
2022/11/10 03:36:29;;;;;;;9.30;3.58;;;9.60;99.90;;;;;;5007459;28;20037;-78
2022/11/10 03:38:55;;;;;;;17.52;3.65;;;9.60;99.90;;;;;;5006417;28;20068;-75
2022/11/10 03:41:21;;;;;;;12.93;3.13;;;9.60;99.90;;;;;;5019458;28;20056;-73
2022/11/10 03:43:48;;;;;;;10.63;3.15;;;9.70;99.90;;;;;;5027339;28;20042;-76
2022/11/10 03:46:13;;;;;;;5.60;2.83;;;9.70;99.90;;;;;;5026950;28;20041;-76
2022/11/10 03:48:39;;;;;;;5.57;2.15;;;9.60;99.90;;;;;;5009261;28;20464;-74
2022/11/10 03:51:05;;;;;;;7.28;2.78;;;9.70;99.90;;;;;;5026639;28;20042;-74
2022/11/10 03:53:30;;;;;;;6.60;2.33;;;9.70;99.90;;;;;;5026826;28;20041;-74
2022/11/10 03:56:00;;;;;;;4.75;2.28;;;9.70;99.90;;;;;;5024912;28;20041;-75
2022/11/10 03:58:25;;;;;;;7.50;3.03;;;9.70;99.90;;;;;;5027438;28;20072;-76
2022/11/10 04:00:55;;;;;;;6.40;3.67;;;9.70;99.90;;;;;;5026640;28;20460;-76
2022/11/10 04:03:21;;;;;;;9.00;2.92;;;9.70;99.90;;;;;;5026396;28;20045;-77
2022/11/10 04:15:40;;;;;;;5.55;2.95;;;9.80;99.90;;;;;;5025273;28;20132;-75
2022/11/10 04:16:56;;;;;;;18.35;2.70;;;9.80;99.90;;;;;;5018496;28;20049;-75
2022/11/10 04:19:22;;;;;;;6.38;2.90;;;9.80;99.90;;;;;;5026567;28;20048;-74
2022/11/10 04:21:48;;;;;;;7.55;2.70;;;9.80;99.90;;;;;;5026359;28;20156;-74
2022/11/10 04:24:14;;;;;;;4.43;2.60;;;9.80;99.90;;;;;;5026220;28;20081;-75
2022/11/10 04:26:41;;;;;;;8.52;2.22;;;9.80;99.90;;;;;;5010241;28;20042;-75
2022/11/10 04:29:09;;;;;;;8.43;2.78;;;9.80;99.90;;;;;;5006435;28;20042;-76
2022/11/10 04:31:37;;;;;;;6.63;3.05;;;9.80;99.90;;;;;;5006704;28;20046;-75
2022/11/10 04:34:03;;;;;;;10.73;4.05;;;9.80;99.90;;;;;;5017844;28;20041;-76
2022/11/10 04:36:31;;;;;;;6.38;2.47;;;9.80;99.90;;;;;;5025798;28;20053;-74
2022/11/10 04:38:57;;;;;;;5.20;2.20;;;9.80;99.90;;;;;;5026375;28;20500;-73
2022/11/10 04:41:24;;;;;;;5.20;2.75;;;9.80;99.90;;;;;;5009010;28;20129;-74
2022/11/10 04:43:50;;;;;;;8.10;3.10;;;9.80;99.90;;;;;;5006197;28;20050;-76
2022/11/10 04:46:35;;;;;;;6.95;2.53;;;9.80;99.90;;;;;;5011332;28;20049;-74
2022/11/10 04:49:01;;;;;;;15.27;3.10;;;9.80;99.90;;;;;;5024414;28;20042;-76
2022/11/10 04:51:29;;;;;;;7.13;3.40;;;9.80;99.90;;;;;;5026135;28;20446;-75
2022/11/10 04:53:55;;;;;;;12.05;4.97;;;9.80;99.90;;;;;;5026163;28;20396;-74
2022/11/10 04:56:23;;;;;;;11.32;4.20;;;9.80;99.90;;;;;;5024608;28;20053;-74
2022/11/10 04:58:49;;;;;;;9.43;3.20;;;9.80;99.90;;;;;;5025848;28;20045;-74
2022/11/10 05:01:18;;;;;;;12.38;3.70;;;9.80;99.90;;;;;;5024189;28;20052;-74
2022/11/10 05:03:45;;;;;;;13.23;3.30;;;9.80;99.90;;;;;;5025314;28;20045;-74
2022/11/10 05:06:10;;;;;;;6.65;3.50;;;9.80;99.90;;;;;;5024951;28;20079;-75
2022/11/10 05:08:38;;;;;;;24.30;3.90;;;9.80;99.90;;;;;;5025493;28;20060;-75
2022/11/10 05:11:03;;;;;;;6.72;3.30;;;9.80;99.90;;;;;;5023067;28;20045;-76
2022/11/10 05:13:29;;;;;;;14.35;3.42;;;9.80;99.90;;;;;;5025497;28;20111;-75
2022/11/10 05:15:56;;;;;;;17.23;3.15;;;9.80;99.90;;;;;;5024211;28;20035;-75
2022/11/10 05:18:21;;;;;;;8.10;3.10;;;9.80;99.90;;;;;;5011687;28;20042;-73
2022/11/10 05:20:47;;;;;;;11.65;3.17;;;9.80;99.90;;;;;;5005403;28;20092;-76
2022/11/10 05:25:57;;;;;;;5.78;3.75;;;9.80;99.90;;;;;;4995868;28;20050;-75
2022/11/10 05:28:22;;;;;;;18.67;3.58;;;9.80;99.90;;;;;;4985680;28;20042;-75
2022/11/10 05:30:48;;;;;;;10.25;3.30;;;9.80;99.90;;;;;;4985571;28;20054;-74
2022/11/10 05:33:13;;;;;;;6.68;3.25;;;9.80;99.90;;;;;;4994228;28;20518;-73
2022/11/10 05:35:39;;;;;;;4.68;2.83;;;9.80;99.90;;;;;;5024536;28;20103;-75
2022/11/10 05:38:05;;;;;;;7.63;2.80;;;9.80;99.90;;;;;;5023721;28;20140;-75
2022/11/10 05:40:32;;;;;;;8.30;3.35;;;9.80;99.90;;;;;;5013416;28;20504;-75
2022/11/10 05:42:57;;;;;;;15.05;3.88;;;9.80;99.90;;;;;;4987935;28;20046;-73
2022/11/10 05:45:26;;;;;;;4.47;2.83;;;9.80;99.90;;;;;;5005181;28;20129;-74
2022/11/10 05:47:52;;;;;;;13.95;2.38;;;9.80;99.90;;;;;;5005262;28;20042;-78
2022/11/10 05:50:19;;;;;;;5.90;3.15;;;9.80;99.90;;;;;;5001959;28;20034;-74
2022/11/10 05:52:50;;;;;;;10.38;2.78;;;9.80;99.90;;;;;;5006463;28;20034;-75
2022/11/10 05:55:17;;;;;;;7.97;2.97;;;9.80;99.90;;;;;;5001045;28;20050;-74
2022/11/10 05:57:44;;;;;;;26.25;3.35;;;9.80;99.90;;;;;;5009963;28;20041;-75
2022/11/10 06:00:12;;;;;;;10.27;4.10;;;9.80;99.90;;;;;;5002782;28;20129;-75
2022/11/10 06:02:38;;;;;;;25.20;3.80;;;9.80;99.90;;;;;;5005377;28;20037;-76
2022/11/10 06:05:04;;;;;;;11.85;3.65;;;9.80;99.90;;;;;;5000108;28;20172;-75
2022/11/10 06:07:29;;;;;;;12.35;4.93;;;9.80;99.90;;;;;;5004951;28;20030;-75
2022/11/10 06:09:55;;;;;;;10.35;3.97;;;9.80;99.90;;;;;;5005600;28;20107;-76
2022/11/10 06:12:20;;;;;;;9.52;3.92;;;9.80;99.90;;;;;;5007328;28;20054;-76
2022/11/10 06:14:46;;;;;;;8.57;3.70;;;9.80;99.90;;;;;;5007707;28;20080;-75
2022/11/10 06:17:13;;;;;;;9.98;4.13;;;9.70;99.90;;;;;;5016279;28;20041;-76
2022/11/10 06:19:39;;;;;;;7.78;3.63;;;9.80;99.90;;;;;;5007392;28;20050;-74
2022/11/10 06:22:04;;;;;;;10.70;3.80;;;9.80;99.90;;;;;;5006433;28;20056;-77
2022/11/10 06:24:30;;;;;;;7.10;3.33;;;9.80;99.90;;;;;;5003735;28;20052;-75
2022/11/10 06:26:55;;;;;;;14.15;4.50;;;9.80;99.90;;;;;;5009205;28;20053;-76
2022/11/10 06:29:21;;;;;;;12.55;3.50;;;9.80;99.90;;;;;;5007577;28;20034;-78
2022/11/10 06:31:46;;;;;;;9.65;4.28;;;9.80;99.90;;;;;;5009851;28;20037;-75
2022/11/10 06:34:12;;;;;;;12.45;4.43;;;9.80;99.90;;;;;;5012046;28;20030;-76
2022/11/10 06:36:39;;;;;;;14.43;3.63;;;9.80;99.90;;;;;;5012947;28;20476;-77
2022/11/10 06:39:05;;;;;;;9.07;3.65;;;9.80;99.90;;;;;;5005841;28;20045;-76
2022/11/10 06:41:32;;;;;;;14.88;4.13;;;9.80;99.90;;;;;;5010031;28;20415;-76
2022/11/10 06:43:58;;;;;;;10.65;3.05;;;9.90;99.90;;;;;;5018602;28;20124;-74
2022/11/10 06:46:24;;;;;;;5.03;3.45;;;9.90;99.90;;;;;;5013347;28;20759;-75
2022/11/10 06:48:49;;;;;;;9.40;3.78;;;9.90;99.90;;;;;;5017888;28;20038;-76
2022/11/10 06:51:15;;;;;;;8.85;3.65;;;9.90;99.90;;;;;;5010350;28;20120;-77
2022/11/10 06:53:41;;;;;;;9.20;3.33;;;9.90;99.90;;;;;;5010799;28;20050;-75
2022/11/10 06:56:06;;;;;;;7.85;3.85;;;9.90;99.90;;;;;;5014923;28;20033;-74
2022/11/10 06:58:32;;;;;;;9.32;3.78;;;10.00;99.90;;;;;;5020763;28;20038;-74
2022/11/10 07:01:00;;;;;;;12.25;4.30;;;10.00;99.90;;;;;;5015981;28;20038;-75
2022/11/10 07:03:25;;;;;;;9.73;4.55;;;10.00;99.90;;;;;;5005714;28;20088;-75
2022/11/10 07:05:51;;;;;;;13.00;4.75;;;10.00;99.90;;;;;;5006973;28;20131;-73
2022/11/10 07:08:16;;;;;;;10.07;3.65;;;10.00;99.90;;;;;;5005993;28;20096;-74
2022/11/10 07:10:44;;;;;;;8.10;4.40;;;10.00;99.90;;;;;;5016064;28;20428;-74
2022/11/10 07:13:11;;;;;;;10.95;3.58;;;10.00;99.90;;;;;;4988640;28;20136;-73
2022/11/10 07:15:37;;;;;;;16.08;4.85;;;10.00;99.90;;;;;;5006464;28;20086;-75
2022/11/10 07:18:03;;;;;;;14.27;3.85;;;10.00;99.90;;;;;;5005747;28;20038;-74
2022/11/10 07:20:30;;;;;;;19.10;5.68;;;10.00;99.90;;;;;;5005062;28;20048;-77
2022/11/10 07:23:00;;;;;;;16.73;4.32;;;10.00;99.90;;;;;;5006890;28;20049;-75
2022/11/10 07:25:28;;;;;;;21.60;4.30;;;10.00;99.90;;;;;;5000688;28;20129;-74
2022/11/10 07:27:58;;;;;;;22.40;4.55;;;10.00;99.90;;;;;;5005786;28;20046;-74
2022/11/10 07:30:25;;;;;;;6.90;3.58;;;10.00;99.90;;;;;;5006168;28;20045;-73
2022/11/10 07:33:09;;;;;;;10.15;3.33;;;10.00;99.90;;;;;;5005610;28;20504;-73
2022/11/10 07:35:35;;;;;;;9.05;3.10;;;10.10;99.90;;;;;;5004473;28;20045;-75
2022/11/10 07:38:03;;;;;;;9.30;3.58;;;10.10;99.90;;;;;;5003596;28;20096;-73
2022/11/10 07:40:29;;;;;;;8.80;4.75;;;10.10;99.90;;;;;;5003792;28;20053;-77
2022/11/10 07:42:55;;;;;;;15.00;5.32;;;10.10;99.90;;;;;;5004349;28;20038;-75
2022/11/10 07:45:21;;;;;;;11.65;4.13;;;10.10;99.90;;;;;;5005480;28;20176;-76
2022/11/10 07:47:46;;;;;;;13.70;3.58;;;10.20;99.90;;;;;;5004364;28;20568;-74
2022/11/10 07:50:12;;;;;;;9.15;3.83;;;10.20;99.90;;;;;;5005100;28;20038;-75
2022/11/10 07:52:37;;;;;;;7.53;3.70;;;10.20;99.90;;;;;;5003949;28;20073;-73
2022/11/10 07:55:04;;;;;;;15.93;5.22;;;10.30;99.90;;;;;;5002450;28;20368;-74
2022/11/10 07:57:31;;;;;;;10.38;3.67;;;10.30;99.90;;;;;;5004928;28;20050;-75
2022/11/10 07:59:57;;;;;;;17.70;5.07;;;10.40;99.90;;;;;;5004143;28;20081;-76
2022/11/10 08:02:22;;;;;;;12.50;3.85;;;10.40;99.90;;;;;;5005125;28;20511;-74
2022/11/10 08:04:48;;;;;;;13.20;4.63;;;10.50;99.90;;;;;;5004767;28;20785;-76
2022/11/10 08:07:13;;;;;;;15.13;4.28;;;10.50;99.90;;;;;;5004567;28;20026;-73
2022/11/10 08:09:39;;;;;;;8.90;3.58;;;10.60;99.90;;;;;;5003971;28;20466;-75
2022/11/10 08:12:05;;;;;;;5.63;3.42;;;10.60;99.90;;;;;;5004586;28;20057;-74
2022/11/10 08:14:30;;;;;;;9.40;3.45;;;10.60;99.90;;;;;;5003411;28;20530;-74
2022/11/10 08:16:56;;;;;;;7.18;3.63;;;10.60;99.90;;;;;;5003497;28;20042;-73
2022/11/10 08:19:21;;;;;;;20.20;4.78;;;10.70;99.90;;;;;;5002793;28;20050;-77
2022/11/10 08:21:47;;;;;;;11.45;3.63;;;10.70;99.90;;;;;;5003348;28;20050;-77
2022/11/10 08:24:13;;;;;;;9.93;4.20;;;10.70;99.90;;;;;;5003200;28;20045;-74
2022/11/10 08:26:38;;;;;;;11.25;4.70;;;10.70;99.90;;;;;;4989765;28;20034;-75
2022/11/10 08:29:04;;;;;;;14.88;4.22;;;10.70;99.90;;;;;;4984557;28;20034;-74
2022/11/10 08:31:32;;;;;;;20.80;5.18;;;10.70;99.90;;;;;;4983698;28;20050;-74
2022/11/10 08:33:57;;;;;;;9.13;2.92;;;10.70;99.90;;;;;;4983818;28;20073;-75
2022/11/10 08:36:23;;;;;;;13.35;5.20;;;10.70;99.90;;;;;;4985086;28;20042;-75
2022/11/10 08:38:48;;;;;;;15.95;4.13;;;10.70;99.90;;;;;;4984760;28;20050;-74
2022/11/10 08:41:15;;;;;;;6.50;4.13;;;10.70;99.90;;;;;;4981514;28;20338;-74
2022/11/10 08:43:40;;;;;;;17.30;4.13;;;10.70;99.90;;;;;;4983280;28;20338;-75
2022/11/10 08:46:06;;;;;;;10.73;4.22;;;10.80;99.90;;;;;;4984340;28;20138;-75
2022/11/10 08:48:32;;;;;;;10.10;5.10;;;10.80;99.90;;;;;;4984922;28;20117;-76
2022/11/10 08:50:59;;;;;;;16.50;4.82;;;10.90;99.90;;;;;;4984149;28;20053;-74
2022/11/10 08:53:25;;;;;;;15.98;3.95;;;10.90;99.90;;;;;;4984699;28;20050;-74
2022/11/10 08:55:52;;;;;;;13.30;4.45;;;10.90;99.90;;;;;;4983220;28;20394;-74
2022/11/10 08:58:20;;;;;;;11.43;4.38;;;11.00;99.90;;;;;;4983828;28;20563;-75
2022/11/10 09:00:46;;;;;;;16.83;4.72;;;11.00;99.90;;;;;;4984423;28;20046;-75
2022/11/10 09:03:14;;;;;;;8.05;4.00;;;11.00;99.90;;;;;;4982817;28;20539;-75
2022/11/10 09:05:41;;;;;;;13.88;4.10;;;11.00;99.90;;;;;;4984572;28;20526;-77
2022/11/10 09:08:07;;;;;;;9.20;3.67;;;11.10;99.90;;;;;;4982661;28;20105;-74
2022/11/10 09:10:40;;;;;;;15.23;4.63;;;11.10;99.90;;;;;;4981576;28;20108;-75
2022/11/10 09:13:06;;;;;;;9.45;3.40;;;11.10;99.90;;;;;;4982579;28;20057;-76
2022/11/10 09:15:33;;;;;;;7.82;4.10;;;11.10;99.90;;;;;;4984071;28;20042;-74
2022/11/10 09:18:00;;;;;;;25.48;4.63;;;11.20;99.90;;;;;;4983013;28;20480;-77
2022/11/10 09:20:27;;;;;;;9.25;3.65;;;11.10;99.90;;;;;;4984326;28;20400;-75
2022/11/10 09:22:53;;;;;;;18.38;4.53;;;11.20;99.90;;;;;;4966500;28;20548;-73
2022/11/10 09:25:19;;;;;;;18.05;5.85;;;11.20;99.90;;;;;;4987073;28;20034;-75
2022/11/10 09:27:45;;;;;;;13.43;4.45;;;11.20;99.90;;;;;;5002025;28;20041;-75
2022/11/10 09:30:11;;;;;;;19.00;4.75;;;11.30;99.90;;;;;;5003440;28;20447;-76
2022/11/10 09:32:37;;;;;;;9.27;4.60;;;11.30;99.90;;;;;;5002117;28;20489;-75
2022/11/10 09:35:03;;;;;;;9.73;3.90;;;11.30;99.90;;;;;;5003165;28;20092;-74
2022/11/10 09:37:29;;;;;;;16.20;5.32;;;11.40;99.90;;;;;;5003234;28;20033;-75
2022/11/10 09:39:54;;;;;;;8.43;4.40;;;11.40;99.90;;;;;;5002503;28;20049;-76
2022/11/10 09:42:33;;;;;;;9.63;3.72;;;11.40;99.90;;;;;;5003389;28;20518;-74
2022/11/10 09:45:18;;;;;;;11.15;4.57;;;11.40;99.90;;;;;;5003025;28;20044;-77
2022/11/10 09:47:59;;;;;;;8.35;5.00;;;11.50;99.90;;;;;;5003305;28;20050;-75
2022/11/10 09:50:39;;;;;;;8.30;4.45;;;11.40;99.90;;;;;;5003439;28;20042;-74
2022/11/10 09:53:12;;;;;;;18.95;5.43;;;11.50;99.90;;;;;;5001550;28;20128;-74
2022/11/10 09:55:45;;;;;;;20.20;5.88;;;11.50;99.90;;;;;;5002031;28;20042;-74
2022/11/10 09:58:12;;;;;;;8.30;5.72;;;11.50;99.90;;;;;;5003211;28;20045;-75
2022/11/10 10:00:41;;;;;;;12.10;6.25;;;11.50;99.90;;;;;;5001698;28;20496;-76
2022/11/10 10:03:18;;;;;;;13.77;5.35;;;11.60;99.90;;;;;;5009299;28;20119;-74
2022/11/10 10:06:08;;;;;;;11.55;4.85;;;11.60;99.90;;;;;;5009360;28;20519;-74
2022/11/10 10:08:41;;;;;;;21.48;6.78;;;11.70;99.90;;;;;;5009550;28;20050;-74
2022/11/10 10:11:35;;;;;;;11.80;4.53;;;11.70;99.90;;;;;;4990564;28;20053;-75
2022/11/10 10:14:32;;;;;;;16.45;5.03;;;11.70;99.90;;;;;;5009403;28;20045;-74
2022/11/10 10:17:17;;;;;;;23.23;5.38;;;11.70;99.90;;;;;;5008426;28;20503;-75
2022/11/10 10:20:10;;;;;;;10.00;4.07;;;11.70;99.90;;;;;;4991430;28;20137;-74
2022/11/10 10:22:46;;;;;;;;;;;11.70;99.90;;;;;;5008846;28;20046;-74
2022/11/10 10:25:39;;;;;;;10.90;4.45;;;11.80;99.90;;;;;;4990795;28;20363;-75
2022/11/10 10:28:17;;;;;;;15.27;5.07;;;11.70;99.90;;;;;;5006653;28;20380;-73
2022/11/10 10:30:43;;;;;;;12.65;5.05;;;11.80;99.90;;;;;;5013701;28;20041;-76
2022/11/10 10:33:17;;;;;;;7.32;4.35;;;11.80;99.90;;;;;;5020782;28;20030;-73
2022/11/10 10:35:44;;;;;;;15.10;5.47;;;11.80;99.90;;;;;;5016526;28;20045;-74
2022/11/10 10:38:32;;;;;;;12.40;3.90;;;11.80;99.90;;;;;;5011558;28;20033;-75
2022/11/10 10:41:09;;;;;;;8.65;4.57;;;11.80;99.90;;;;;;5008350;28;20046;-74
2022/11/10 10:43:34;;;;;;;9.98;5.45;;;11.80;99.90;;;;;;4998021;28;20117;-74
2022/11/10 10:46:09;;;;;;;7.82;3.90;;;11.90;99.90;;;;;;5009734;28;20185;-73
2022/11/10 10:48:35;;;;;;;11.10;5.07;;;11.90;99.90;;;;;;5009817;28;20050;-75
2022/11/10 10:51:00;;;;;;;14.18;5.88;;;11.90;99.90;;;;;;5010217;28;20416;-73
2022/11/10 10:53:26;;;;;;;19.25;6.55;;;11.90;99.90;;;;;;5008900;28;20049;-73
2022/11/10 10:56:12;;;;;;;12.90;4.97;;;12.00;99.90;;;;;;5008526;28;20369;-74
2022/11/10 10:58:54;;;;;;;17.92;5.65;;;12.00;99.90;;;;;;5022787;28;20042;-74
2022/11/10 11:01:29;;;;;;;12.20;6.57;;;12.00;99.90;;;;;;4988372;28;20107;-74
2022/11/10 11:03:54;;;;;;;18.88;6.80;;;12.00;99.90;;;;;;4996339;28;20052;-73
2022/11/10 11:06:29;;;;;;;7.82;5.25;;;12.00;99.90;;;;;;5008717;28;20416;-74
2022/11/10 11:09:16;;;;;;;15.80;6.75;;;12.00;99.90;;;;;;5007888;28;20503;-76
2022/11/10 11:11:58;;;;;;;10.80;5.55;;;12.10;99.90;;;;;;5008552;28;20107;-75
2022/11/10 11:14:26;;;;;;;13.40;5.72;;;12.10;99.90;;;;;;5004501;28;20122;-75
2022/11/10 11:17:02;;;;;;;15.35;7.03;;;12.10;99.90;;;;;;5005001;28;20439;-75
2022/11/10 11:19:36;;;;;;;10.98;6.15;;;12.10;99.90;;;;;;5004354;28;20030;-75
2022/11/10 11:22:38;;;;;;;10.60;5.22;;;12.10;99.90;;;;;;5004519;28;20046;-76
2022/11/10 11:25:10;;;;;;;11.97;4.67;;;12.10;99.90;;;;;;5003091;28;20050;-76
2022/11/10 11:27:55;;;;;;;8.05;4.32;;;12.10;99.90;;;;;;5005771;28;20281;-74
2022/11/10 11:30:23;;;;;;;11.82;5.82;;;12.00;99.90;;;;;;5003730;28;20046;-76
2022/11/10 11:33:20;;;;;;;12.73;5.28;;;12.00;99.90;;;;;;5004437;28;20042;-74
2022/11/10 11:35:58;;;;;;;9.10;5.28;;;12.10;99.90;;;;;;4988028;28;20330;-74
2022/11/10 11:38:50;;;;;;;11.30;5.10;;;12.10;99.90;;;;;;5004774;28;20046;-76
2022/11/10 11:41:43;;;;;;;6.43;4.38;;;12.10;99.90;;;;;;5003194;28;20050;-75
2022/11/10 11:44:29;;;;;;;6.28;4.45;;;12.10;99.90;;;;;;5003743;28;20361;-75
2022/11/10 11:47:12;;;;;;;14.93;3.97;;;12.10;99.90;;;;;;4987692;28;20077;-75
2022/11/10 11:50:07;;;;;;;8.05;4.65;;;12.10;99.90;;;;;;5003890;28;20470;-74
2022/11/10 11:52:37;;;;;;;8.20;4.50;;;12.10;99.90;;;;;;5004275;28;20046;-76
2022/11/10 11:55:17;;;;;;;16.02;5.57;;;12.10;99.90;;;;;;5003628;28;20080;-75
2022/11/10 11:58:01;;;;;;;14.40;6.05;;;12.10;99.90;;;;;;5004226;28;20562;-74
2022/11/10 12:00:34;;;;;;;10.32;6.45;;;12.10;99.90;;;;;;4987789;28;20128;-75
2022/11/10 12:03:24;;;;;;;13.93;4.97;;;12.10;99.90;;;;;;5004497;28;20050;-75
2022/11/10 12:06:11;;;;;;;13.65;3.72;;;12.10;99.90;;;;;;5005253;28;20081;-74
2022/11/10 12:08:40;;;;;;;11.07;4.35;;;12.10;99.90;;;;;;5004307;28;20042;-75
2022/11/10 12:11:15;;;;;;;16.27;4.60;;;12.20;99.90;;;;;;5003314;28;20478;-74
2022/11/10 12:14:03;;;;;;;11.32;4.78;;;12.20;99.90;;;;;;5003515;28;20058;-74
2022/11/10 12:16:34;;;;;;;13.27;5.13;;;12.20;99.90;;;;;;5003288;28;20496;-74
2022/11/10 12:19:18;;;;;;;12.70;4.93;;;12.30;99.90;;;;;;5003304;28;20042;-75
2022/11/10 12:22:12;;;;;;;8.82;4.45;;;12.30;99.90;;;;;;5003800;28;20037;-76
2022/11/10 12:24:43;;;;;;;14.80;4.28;;;12.30;99.90;;;;;;5003026;28;20049;-74
2022/11/10 12:27:30;;;;;;;14.38;6.18;;;12.30;99.90;;;;;;5004438;28;20042;-74
2022/11/10 12:30:02;;;;;;;33.40;5.47;;;12.30;99.90;;;;;;4987263;28;20130;-75
2022/11/10 12:32:33;;;;;;;15.93;5.57;;;12.40;99.90;;;;;;5003297;28;20045;-76
2022/11/10 12:35:06;;;;;;;13.77;5.00;;;12.40;99.90;;;;;;5004169;28;20045;-76
2022/11/10 12:37:45;;;;;;;9.75;3.80;;;12.40;99.90;;;;;;5004241;28;20269;-74
2022/11/10 12:40:19;;;;;;;15.55;5.18;;;12.40;99.90;;;;;;5018270;28;20463;-74
2022/11/10 12:43:00;;;;;;;7.15;4.35;;;12.40;99.90;;;;;;5004564;28;20050;-74
2022/11/10 12:45:35;;;;;;;12.63;4.65;;;12.40;99.90;;;;;;5002942;28;20099;-74
2022/11/10 12:48:03;;;;;;;8.07;3.80;;;12.40;99.90;;;;;;5003347;28;20050;-76
2022/11/10 12:50:40;;;;;;;9.35;5.03;;;12.40;99.90;;;;;;5004348;28;20567;-77
2022/11/10 12:53:35;;;;;;;8.70;4.50;;;12.40;99.90;;;;;;5002682;28;20629;-75
2022/11/10 12:56:22;;;;;;;8.68;3.13;;;12.40;99.90;;;;;;5003235;28;20376;-76
2022/11/10 12:59:08;;;;;;;13.35;3.85;;;12.40;99.90;;;;;;5002941;28;20603;-74
2022/11/10 13:01:40;;;;;;;9.50;4.43;;;12.40;99.90;;;;;;5002205;28;20497;-74
2022/11/10 13:04:06;;;;;;;13.60;3.65;;;12.40;99.90;;;;;;5004322;28;20045;-74
2022/11/10 13:06:36;;;;;;;11.02;3.72;;;12.40;99.90;;;;;;5003879;28;20041;-74
2022/11/10 13:09:02;;;;;;;19.90;4.93;;;12.50;99.90;;;;;;5001616;28;20511;-74
2022/11/10 13:11:33;;;;;;;10.95;5.25;;;12.40;99.90;;;;;;5002507;28;20049;-74
2022/11/10 13:14:17;;;;;;;25.42;5.60;;;12.40;99.90;;;;;;5003483;28;20072;-74